sensor_id;sensor_type;location;lat;lon;timestamp;pressure;altitude;pressure_sealevel;temperature
20289;BMP180;10303;51.960;8.372;2022-11-11T00:00:15;101718.00;;;12.20
20289;BMP180;10303;51.960;8.372;2022-11-11T00:03:00;101714.00;;;12.20
20289;BMP180;10303;51.960;8.372;2022-11-11T00:05:45;101726.00;;;12.10
20289;BMP180;10303;51.960;8.372;2022-11-11T00:08:30;101717.00;;;12.10
20289;BMP180;10303;51.960;8.372;2022-11-11T00:11:15;101721.00;;;12.10
20289;BMP180;10303;51.960;8.372;2022-11-11T00:14:00;101712.00;;;12.00
20289;BMP180;10303;51.960;8.372;2022-11-11T00:16:45;101703.00;;;12.00
20289;BMP180;10303;51.960;8.372;2022-11-11T00:19:48;101709.00;;;11.90
20289;BMP180;10303;51.960;8.372;2022-11-11T00:22:51;101713.00;;;11.90
20289;BMP180;10303;51.960;8.372;2022-11-11T00:25:55;101725.00;;;11.80
20289;BMP180;10303;51.960;8.372;2022-11-11T00:28:41;101725.00;;;11.80
20289;BMP180;10303;51.960;8.372;2022-11-11T00:31:25;101721.00;;;11.80
20289;BMP180;10303;51.960;8.372;2022-11-11T00:34:10;101711.00;;;11.70
20289;BMP180;10303;51.960;8.372;2022-11-11T00:36:55;101716.00;;;11.70
20289;BMP180;10303;51.960;8.372;2022-11-11T00:39:39;101714.00;;;11.70
20289;BMP180;10303;51.960;8.372;2022-11-11T00:42:24;101717.00;;;11.60
20289;BMP180;10303;51.960;8.372;2022-11-11T00:45:10;101717.00;;;11.60
20289;BMP180;10303;51.960;8.372;2022-11-11T00:47:54;101715.00;;;11.60
20289;BMP180;10303;51.960;8.372;2022-11-11T00:50:57;101715.00;;;11.50
20289;BMP180;10303;51.960;8.372;2022-11-11T00:53:41;101708.00;;;11.50
20289;BMP180;10303;51.960;8.372;2022-11-11T00:56:26;101722.00;;;11.50
20289;BMP180;10303;51.960;8.372;2022-11-11T00:59:11;101724.00;;;11.50
20289;BMP180;10303;51.960;8.372;2022-11-11T01:01:55;101728.00;;;11.50
20289;BMP180;10303;51.960;8.372;2022-11-11T01:04:40;101715.00;;;11.50
20289;BMP180;10303;51.960;8.372;2022-11-11T01:07:25;101725.00;;;11.50
20289;BMP180;10303;51.960;8.372;2022-11-11T01:10:10;101722.00;;;11.50
20289;BMP180;10303;51.960;8.372;2022-11-11T01:12:55;101736.00;;;11.50
20289;BMP180;10303;51.960;8.372;2022-11-11T01:16:09;101728.00;;;11.40
20289;BMP180;10303;51.960;8.372;2022-11-11T01:18:54;101735.00;;;11.50
20289;BMP180;10303;51.960;8.372;2022-11-11T01:21:39;101728.00;;;11.50
20289;BMP180;10303;51.960;8.372;2022-11-11T01:24:24;101740.00;;;11.50
20289;BMP180;10303;51.960;8.372;2022-11-11T01:27:08;101745.00;;;11.40
20289;BMP180;10303;51.960;8.372;2022-11-11T01:29:53;101738.00;;;11.40
20289;BMP180;10303;51.960;8.372;2022-11-11T01:32:37;101735.00;;;11.40
20289;BMP180;10303;51.960;8.372;2022-11-11T01:35:22;101735.00;;;11.40
20289;BMP180;10303;51.960;8.372;2022-11-11T01:38:08;101741.00;;;11.40
20289;BMP180;10303;51.960;8.372;2022-11-11T01:40:53;101750.00;;;11.40
20289;BMP180;10303;51.960;8.372;2022-11-11T01:43:38;101747.00;;;11.30
20289;BMP180;10303;51.960;8.372;2022-11-11T01:46:48;101755.00;;;11.30
20289;BMP180;10303;51.960;8.372;2022-11-11T01:49:55;101745.00;;;11.20
20289;BMP180;10303;51.960;8.372;2022-11-11T01:52:42;101746.00;;;11.20
20289;BMP180;10303;51.960;8.372;2022-11-11T01:55:29;101762.00;;;11.20
20289;BMP180;10303;51.960;8.372;2022-11-11T01:58:15;101746.00;;;11.20
20289;BMP180;10303;51.960;8.372;2022-11-11T02:01:01;101756.00;;;11.20
20289;BMP180;10303;51.960;8.372;2022-11-11T02:03:50;101755.00;;;11.20
20289;BMP180;10303;51.960;8.372;2022-11-11T02:07:00;101745.00;;;11.10
20289;BMP180;10303;51.960;8.372;2022-11-11T02:09:47;101738.00;;;11.10
20289;BMP180;10303;51.960;8.372;2022-11-11T02:12:34;101731.00;;;11.10
20289;BMP180;10303;51.960;8.372;2022-11-11T02:15:38;101741.00;;;11.00
20289;BMP180;10303;51.960;8.372;2022-11-11T02:18:24;101726.00;;;11.00
20289;BMP180;10303;51.960;8.372;2022-11-11T02:21:21;101721.00;;;11.00
20289;BMP180;10303;51.960;8.372;2022-11-11T02:24:14;101724.00;;;11.00
20289;BMP180;10303;51.960;8.372;2022-11-11T02:27:01;101722.00;;;10.90
20289;BMP180;10303;51.960;8.372;2022-11-11T02:29:50;101732.00;;;10.90
20289;BMP180;10303;51.960;8.372;2022-11-11T02:32:36;101730.00;;;11.00
20289;BMP180;10303;51.960;8.372;2022-11-11T02:35:44;101730.00;;;10.90
20289;BMP180;10303;51.960;8.372;2022-11-11T02:38:29;101737.00;;;10.90
20289;BMP180;10303;51.960;8.372;2022-11-11T02:41:14;101738.00;;;10.90
20289;BMP180;10303;51.960;8.372;2022-11-11T02:44:17;101746.00;;;10.80
20289;BMP180;10303;51.960;8.372;2022-11-11T02:47:03;101765.00;;;10.80
20289;BMP180;10303;51.960;8.372;2022-11-11T02:49:47;101753.00;;;10.80
20289;BMP180;10303;51.960;8.372;2022-11-11T02:52:32;101754.00;;;10.80
20289;BMP180;10303;51.960;8.372;2022-11-11T02:55:16;101745.00;;;10.80
20289;BMP180;10303;51.960;8.372;2022-11-11T02:58:01;101750.00;;;10.80
20289;BMP180;10303;51.960;8.372;2022-11-11T03:00:46;101761.00;;;10.80
20289;BMP180;10303;51.960;8.372;2022-11-11T03:03:30;101749.00;;;10.80
20289;BMP180;10303;51.960;8.372;2022-11-11T03:06:15;101754.00;;;10.80
20289;BMP180;10303;51.960;8.372;2022-11-11T03:09:00;101742.00;;;10.80
20289;BMP180;10303;51.960;8.372;2022-11-11T03:11:44;101756.00;;;10.80
20289;BMP180;10303;51.960;8.372;2022-11-11T03:14:29;101740.00;;;10.70
20289;BMP180;10303;51.960;8.372;2022-11-11T03:17:13;101730.00;;;10.70
20289;BMP180;10303;51.960;8.372;2022-11-11T03:20:19;101745.00;;;10.70
20289;BMP180;10303;51.960;8.372;2022-11-11T03:23:22;101739.00;;;10.70
20289;BMP180;10303;51.960;8.372;2022-11-11T03:26:07;101751.00;;;10.70
20289;BMP180;10303;51.960;8.372;2022-11-11T03:28:52;101748.00;;;10.70
20289;BMP180;10303;51.960;8.372;2022-11-11T03:31:37;101753.00;;;10.70
20289;BMP180;10303;51.960;8.372;2022-11-11T03:34:21;101754.00;;;10.60
20289;BMP180;10303;51.960;8.372;2022-11-11T03:37:09;101756.00;;;10.60
20289;BMP180;10303;51.960;8.372;2022-11-11T03:40:13;101741.00;;;10.60
20289;BMP180;10303;51.960;8.372;2022-11-11T03:42:57;101746.00;;;10.60
20289;BMP180;10303;51.960;8.372;2022-11-11T03:45:43;101743.00;;;10.70
20289;BMP180;10303;51.960;8.372;2022-11-11T03:48:32;101753.00;;;10.70
20289;BMP180;10303;51.960;8.372;2022-11-11T03:51:17;101745.00;;;10.60
20289;BMP180;10303;51.960;8.372;2022-11-11T03:54:01;101762.00;;;10.70
20289;BMP180;10303;51.960;8.372;2022-11-11T03:56:46;101742.00;;;10.70
20289;BMP180;10303;51.960;8.372;2022-11-11T03:59:30;101746.00;;;10.70
20289;BMP180;10303;51.960;8.372;2022-11-11T04:02:15;101748.00;;;10.70
20289;BMP180;10303;51.960;8.372;2022-11-11T04:05:18;101749.00;;;10.70
20289;BMP180;10303;51.960;8.372;2022-11-11T04:08:22;101754.00;;;10.60
20289;BMP180;10303;51.960;8.372;2022-11-11T04:11:37;101732.00;;;10.60
20289;BMP180;10303;51.960;8.372;2022-11-11T04:14:22;101751.00;;;10.60
20289;BMP180;10303;51.960;8.372;2022-11-11T04:17:25;101753.00;;;10.60
20289;BMP180;10303;51.960;8.372;2022-11-11T04:20:10;101756.00;;;10.60
20289;BMP180;10303;51.960;8.372;2022-11-11T04:23:14;101739.00;;;10.60
20289;BMP180;10303;51.960;8.372;2022-11-11T04:26:00;101744.00;;;10.60
20289;BMP180;10303;51.960;8.372;2022-11-11T04:28:44;101724.00;;;10.60
20289;BMP180;10303;51.960;8.372;2022-11-11T04:31:47;101722.00;;;10.50
20289;BMP180;10303;51.960;8.372;2022-11-11T04:34:57;101728.00;;;10.50
20289;BMP180;10303;51.960;8.372;2022-11-11T04:37:49;101724.00;;;10.50
20289;BMP180;10303;51.960;8.372;2022-11-11T04:40:34;101737.00;;;10.50
20289;BMP180;10303;51.960;8.372;2022-11-11T04:43:37;101736.00;;;10.60
20289;BMP180;10303;51.960;8.372;2022-11-11T04:46:40;101711.00;;;10.60
20289;BMP180;10303;51.960;8.372;2022-11-11T04:49:25;101739.00;;;10.60
20289;BMP180;10303;51.960;8.372;2022-11-11T04:52:10;101742.00;;;10.60
20289;BMP180;10303;51.960;8.372;2022-11-11T04:55:10;101751.00;;;10.60
20289;BMP180;10303;51.960;8.372;2022-11-11T04:58:15;101751.00;;;10.70
20289;BMP180;10303;51.960;8.372;2022-11-11T05:01:01;101759.00;;;10.70
20289;BMP180;10303;51.960;8.372;2022-11-11T05:03:45;101763.00;;;10.70
20289;BMP180;10303;51.960;8.372;2022-11-11T05:06:30;101768.00;;;10.70
20289;BMP180;10303;51.960;8.372;2022-11-11T05:09:33;101754.00;;;10.70
20289;BMP180;10303;51.960;8.372;2022-11-11T05:12:17;101773.00;;;10.70
20289;BMP180;10303;51.960;8.372;2022-11-11T05:15:02;101771.00;;;10.70
20289;BMP180;10303;51.960;8.372;2022-11-11T05:18:07;101786.00;;;10.70
20289;BMP180;10303;51.960;8.372;2022-11-11T05:21:25;101780.00;;;10.60
20289;BMP180;10303;51.960;8.372;2022-11-11T05:24:11;101768.00;;;10.60
20289;BMP180;10303;51.960;8.372;2022-11-11T05:27:15;101765.00;;;10.60
20289;BMP180;10303;51.960;8.372;2022-11-11T05:30:00;101769.00;;;10.60
20289;BMP180;10303;51.960;8.372;2022-11-11T05:32:45;101773.00;;;10.60
20289;BMP180;10303;51.960;8.372;2022-11-11T05:35:29;101776.00;;;10.70
20289;BMP180;10303;51.960;8.372;2022-11-11T05:38:14;101772.00;;;10.60
20289;BMP180;10303;51.960;8.372;2022-11-11T05:41:05;101774.00;;;10.60
20289;BMP180;10303;51.960;8.372;2022-11-11T05:43:50;101779.00;;;10.70
20289;BMP180;10303;51.960;8.372;2022-11-11T05:46:35;101784.00;;;10.70
20289;BMP180;10303;51.960;8.372;2022-11-11T05:49:19;101778.00;;;10.70
20289;BMP180;10303;51.960;8.372;2022-11-11T05:52:05;101788.00;;;10.60
20289;BMP180;10303;51.960;8.372;2022-11-11T05:54:50;101783.00;;;10.70
20289;BMP180;10303;51.960;8.372;2022-11-11T05:57:35;101774.00;;;10.60
20289;BMP180;10303;51.960;8.372;2022-11-11T06:00:20;101794.00;;;10.70
20289;BMP180;10303;51.960;8.372;2022-11-11T06:03:05;101798.00;;;10.60
20289;BMP180;10303;51.960;8.372;2022-11-11T06:05:49;101803.00;;;10.60
20289;BMP180;10303;51.960;8.372;2022-11-11T06:08:34;101793.00;;;10.60
20289;BMP180;10303;51.960;8.372;2022-11-11T06:11:19;101796.00;;;10.60
20289;BMP180;10303;51.960;8.372;2022-11-11T06:14:05;101810.00;;;10.50
20289;BMP180;10303;51.960;8.372;2022-11-11T06:16:49;101811.00;;;10.60
20289;BMP180;10303;51.960;8.372;2022-11-11T06:19:34;101815.00;;;10.60
20289;BMP180;10303;51.960;8.372;2022-11-11T06:22:18;101819.00;;;10.50
20289;BMP180;10303;51.960;8.372;2022-11-11T06:25:29;101830.00;;;10.40
20289;BMP180;10303;51.960;8.372;2022-11-11T06:28:32;101831.00;;;10.50
20289;BMP180;10303;51.960;8.372;2022-11-11T06:31:23;101839.00;;;10.40
20289;BMP180;10303;51.960;8.372;2022-11-11T06:34:08;101841.00;;;10.40
20289;BMP180;10303;51.960;8.372;2022-11-11T06:36:53;101842.00;;;10.40
20289;BMP180;10303;51.960;8.372;2022-11-11T06:39:37;101843.00;;;10.30
20289;BMP180;10303;51.960;8.372;2022-11-11T06:42:22;101851.00;;;10.30
20289;BMP180;10303;51.960;8.372;2022-11-11T06:45:07;101849.00;;;10.30
20289;BMP180;10303;51.960;8.372;2022-11-11T06:47:52;101841.00;;;10.30
20289;BMP180;10303;51.960;8.372;2022-11-11T06:50:37;101844.00;;;10.20
20289;BMP180;10303;51.960;8.372;2022-11-11T06:53:22;101839.00;;;10.20
20289;BMP180;10303;51.960;8.372;2022-11-11T06:56:08;101850.00;;;10.20
20289;BMP180;10303;51.960;8.372;2022-11-11T06:58:52;101847.00;;;10.20
20289;BMP180;10303;51.960;8.372;2022-11-11T07:01:37;101855.00;;;10.10
20289;BMP180;10303;51.960;8.372;2022-11-11T07:04:22;101852.00;;;10.20
20289;BMP180;10303;51.960;8.372;2022-11-11T07:07:07;101855.00;;;10.10
20289;BMP180;10303;51.960;8.372;2022-11-11T07:09:51;101847.00;;;10.20
20289;BMP180;10303;51.960;8.372;2022-11-11T07:12:36;101847.00;;;10.20
20289;BMP180;10303;51.960;8.372;2022-11-11T07:15:20;101845.00;;;10.20
20289;BMP180;10303;51.960;8.372;2022-11-11T07:18:05;101860.00;;;10.20
20289;BMP180;10303;51.960;8.372;2022-11-11T07:20:50;101856.00;;;10.20
20289;BMP180;10303;51.960;8.372;2022-11-11T07:23:35;101854.00;;;10.20
20289;BMP180;10303;51.960;8.372;2022-11-11T07:26:19;101864.00;;;10.20
20289;BMP180;10303;51.960;8.372;2022-11-11T07:29:04;101856.00;;;10.20
20289;BMP180;10303;51.960;8.372;2022-11-11T07:31:48;101858.00;;;10.30
20289;BMP180;10303;51.960;8.372;2022-11-11T07:34:34;101863.00;;;10.30
20289;BMP180;10303;51.960;8.372;2022-11-11T07:37:19;101850.00;;;10.40
20289;BMP180;10303;51.960;8.372;2022-11-11T07:40:04;101859.00;;;10.40
20289;BMP180;10303;51.960;8.372;2022-11-11T07:42:49;101860.00;;;10.50
20289;BMP180;10303;51.960;8.372;2022-11-11T07:45:34;101871.00;;;10.50
20289;BMP180;10303;51.960;8.372;2022-11-11T07:48:18;101864.00;;;10.60
20289;BMP180;10303;51.960;8.372;2022-11-11T07:51:03;101865.00;;;10.60
20289;BMP180;10303;51.960;8.372;2022-11-11T07:53:48;101878.00;;;10.60
20289;BMP180;10303;51.960;8.372;2022-11-11T07:56:32;101851.00;;;10.70
20289;BMP180;10303;51.960;8.372;2022-11-11T07:59:17;101860.00;;;10.80
20289;BMP180;10303;51.960;8.372;2022-11-11T08:02:01;101859.00;;;10.80
20289;BMP180;10303;51.960;8.372;2022-11-11T08:04:46;101871.00;;;10.90
20289;BMP180;10303;51.960;8.372;2022-11-11T08:07:33;101860.00;;;11.00
20289;BMP180;10303;51.960;8.372;2022-11-11T08:10:19;101878.00;;;11.10
20289;BMP180;10303;51.960;8.372;2022-11-11T08:13:04;101871.00;;;11.10
20289;BMP180;10303;51.960;8.372;2022-11-11T08:16:09;101877.00;;;11.20
20289;BMP180;10303;51.960;8.372;2022-11-11T08:18:53;101881.00;;;11.30
20289;BMP180;10303;51.960;8.372;2022-11-11T08:21:38;101882.00;;;11.40
20289;BMP180;10303;51.960;8.372;2022-11-11T08:24:23;101904.00;;;11.50
20289;BMP180;10303;51.960;8.372;2022-11-11T08:27:07;101901.00;;;11.60
20289;BMP180;10303;51.960;8.372;2022-11-11T08:29:52;101896.00;;;11.70
20289;BMP180;10303;51.960;8.372;2022-11-11T08:32:37;101923.00;;;11.80
20289;BMP180;10303;51.960;8.372;2022-11-11T08:35:22;101917.00;;;11.80
20289;BMP180;10303;51.960;8.372;2022-11-11T08:38:06;101916.00;;;12.00
20289;BMP180;10303;51.960;8.372;2022-11-11T08:40:51;101910.00;;;12.10
20289;BMP180;10303;51.960;8.372;2022-11-11T08:43:36;101916.00;;;12.10
20289;BMP180;10303;51.960;8.372;2022-11-11T08:46:22;101921.00;;;12.20
20289;BMP180;10303;51.960;8.372;2022-11-11T08:49:07;101901.00;;;12.30
20289;BMP180;10303;51.960;8.372;2022-11-11T08:51:52;101910.00;;;12.40
20289;BMP180;10303;51.960;8.372;2022-11-11T08:54:36;101913.00;;;12.50
20289;BMP180;10303;51.960;8.372;2022-11-11T08:57:21;101927.00;;;12.60
20289;BMP180;10303;51.960;8.372;2022-11-11T09:00:07;101917.00;;;12.80
20289;BMP180;10303;51.960;8.372;2022-11-11T09:02:52;101909.00;;;12.90
20289;BMP180;10303;51.960;8.372;2022-11-11T09:05:38;101924.00;;;13.00
20289;BMP180;10303;51.960;8.372;2022-11-11T09:08:23;101913.00;;;13.10
20289;BMP180;10303;51.960;8.372;2022-11-11T09:11:08;101926.00;;;13.20
20289;BMP180;10303;51.960;8.372;2022-11-11T09:13:53;101918.00;;;13.30
20289;BMP180;10303;51.960;8.372;2022-11-11T09:16:37;101919.00;;;13.40
20289;BMP180;10303;51.960;8.372;2022-11-11T09:19:22;101923.00;;;13.60
20289;BMP180;10303;51.960;8.372;2022-11-11T09:22:07;101932.00;;;13.70
20289;BMP180;10303;51.960;8.372;2022-11-11T09:24:51;101935.00;;;13.80
20289;BMP180;10303;51.960;8.372;2022-11-11T09:27:39;101937.00;;;13.90
20289;BMP180;10303;51.960;8.372;2022-11-11T09:30:26;101944.00;;;14.10
20289;BMP180;10303;51.960;8.372;2022-11-11T09:33:11;101939.00;;;14.20
20289;BMP180;10303;51.960;8.372;2022-11-11T09:35:57;101939.00;;;14.30
20289;BMP180;10303;51.960;8.372;2022-11-11T09:38:42;101943.00;;;14.50
20289;BMP180;10303;51.960;8.372;2022-11-11T09:45:08;101949.00;;;14.70
20289;BMP180;10303;51.960;8.372;2022-11-11T09:51:29;101943.00;;;15.00
20289;BMP180;10303;51.960;8.372;2022-11-11T09:54:36;101949.00;;;15.10
20289;BMP180;10303;51.960;8.372;2022-11-11T09:57:38;101951.00;;;15.30
20289;BMP180;10303;51.960;8.372;2022-11-11T10:00:32;101941.00;;;15.40
20289;BMP180;10303;51.960;8.372;2022-11-11T10:03:23;101935.00;;;15.50
20289;BMP180;10303;51.960;8.372;2022-11-11T10:06:23;101949.00;;;15.60
20289;BMP180;10303;51.960;8.372;2022-11-11T10:09:21;101947.00;;;15.80
20289;BMP180;10303;51.960;8.372;2022-11-11T10:12:12;101960.00;;;15.90
20289;BMP180;10303;51.960;8.372;2022-11-11T10:14:57;101948.00;;;16.00
20289;BMP180;10303;51.960;8.372;2022-11-11T10:18:14;101950.00;;;16.10
20289;BMP180;10303;51.960;8.372;2022-11-11T10:21:04;101939.00;;;16.30
20289;BMP180;10303;51.960;8.372;2022-11-11T10:24:00;101949.00;;;16.50
20289;BMP180;10303;51.960;8.372;2022-11-11T10:26:47;101943.00;;;16.70
20289;BMP180;10303;51.960;8.372;2022-11-11T10:29:42;101949.00;;;17.00
20289;BMP180;10303;51.960;8.372;2022-11-11T10:32:34;101951.00;;;17.40
20289;BMP180;10303;51.960;8.372;2022-11-11T10:35:24;101949.00;;;17.80
20289;BMP180;10303;51.960;8.372;2022-11-11T10:41:46;101944.00;;;18.70
20289;BMP180;10303;51.960;8.372;2022-11-11T10:44:40;101950.00;;;19.10
20289;BMP180;10303;51.960;8.372;2022-11-11T10:47:46;101948.00;;;19.50
20289;BMP180;10303;51.960;8.372;2022-11-11T10:50:53;101954.00;;;19.80
20289;BMP180;10303;51.960;8.372;2022-11-11T10:54:32;101938.00;;;20.10
20289;BMP180;10303;51.960;8.372;2022-11-11T10:57:42;101951.00;;;20.30
20289;BMP180;10303;51.960;8.372;2022-11-11T11:00:47;101945.00;;;20.40
20289;BMP180;10303;51.960;8.372;2022-11-11T11:03:38;101940.00;;;20.60
20289;BMP180;10303;51.960;8.372;2022-11-11T11:06:34;101950.00;;;20.90
20289;BMP180;10303;51.960;8.372;2022-11-11T11:09:39;101943.00;;;21.20
20289;BMP180;10303;51.960;8.372;2022-11-11T11:13:24;101942.00;;;21.60
20289;BMP180;10303;51.960;8.372;2022-11-11T11:19:14;101947.00;;;22.10
20289;BMP180;10303;51.960;8.372;2022-11-11T11:22:02;101945.00;;;22.30
20289;BMP180;10303;51.960;8.372;2022-11-11T11:24:47;101942.00;;;22.50
20289;BMP180;10303;51.960;8.372;2022-11-11T11:27:32;101953.00;;;22.70
20289;BMP180;10303;51.960;8.372;2022-11-11T11:30:28;101946.00;;;22.80
20289;BMP180;10303;51.960;8.372;2022-11-11T11:33:18;101957.00;;;22.90
20289;BMP180;10303;51.960;8.372;2022-11-11T11:36:16;101952.00;;;23.10
20289;BMP180;10303;51.960;8.372;2022-11-11T11:39:01;101941.00;;;23.20
20289;BMP180;10303;51.960;8.372;2022-11-11T11:41:48;101958.00;;;23.40
20289;BMP180;10303;51.960;8.372;2022-11-11T11:44:38;101960.00;;;23.60
20289;BMP180;10303;51.960;8.372;2022-11-11T11:55:10;101946.00;;;24.20
20289;BMP180;10303;51.960;8.372;2022-11-11T11:58:26;101946.00;;;24.30
20289;BMP180;10303;51.960;8.372;2022-11-11T12:05:24;101951.00;;;24.50
20289;BMP180;10303;51.960;8.372;2022-11-11T12:21:08;101936.00;;;24.90
20289;BMP180;10303;51.960;8.372;2022-11-11T12:27:25;101936.00;;;24.70
20289;BMP180;10303;51.960;8.372;2022-11-11T12:30:18;101930.00;;;24.70
20289;BMP180;10303;51.960;8.372;2022-11-11T12:34:05;101925.00;;;24.60
20289;BMP180;10303;51.960;8.372;2022-11-11T12:44:25;101920.00;;;23.90
20289;BMP180;10303;51.960;8.372;2022-11-11T12:53:48;101914.00;;;23.70
20289;BMP180;10303;51.960;8.372;2022-11-11T13:00:22;101907.00;;;23.50
20289;BMP180;10303;51.960;8.372;2022-11-11T13:03:31;101926.00;;;23.40
20289;BMP180;10303;51.960;8.372;2022-11-11T13:12:35;101923.00;;;22.90
20289;BMP180;10303;51.960;8.372;2022-11-11T13:15:26;101926.00;;;22.80
20289;BMP180;10303;51.960;8.372;2022-11-11T13:18:47;101922.00;;;22.60
20289;BMP180;10303;51.960;8.372;2022-11-11T13:21:55;101917.00;;;22.50
20289;BMP180;10303;51.960;8.372;2022-11-11T13:24:41;101918.00;;;22.40
20289;BMP180;10303;51.960;8.372;2022-11-11T13:27:46;101927.00;;;22.30
20289;BMP180;10303;51.960;8.372;2022-11-11T13:34:13;101931.00;;;22.00
20289;BMP180;10303;51.960;8.372;2022-11-11T13:40:44;101940.00;;;21.70
20289;BMP180;10303;51.960;8.372;2022-11-11T13:43:39;101944.00;;;21.60
20289;BMP180;10303;51.960;8.372;2022-11-11T13:46:34;101942.00;;;21.50
20289;BMP180;10303;51.960;8.372;2022-11-11T13:49:28;101949.00;;;21.50
20289;BMP180;10303;51.960;8.372;2022-11-11T13:52:23;101952.00;;;21.40
20289;BMP180;10303;51.960;8.372;2022-11-11T13:55:41;101941.00;;;21.30
20289;BMP180;10303;51.960;8.372;2022-11-11T13:58:35;101950.00;;;21.30
20289;BMP180;10303;51.960;8.372;2022-11-11T14:01:22;101951.00;;;21.30
20289;BMP180;10303;51.960;8.372;2022-11-11T14:04:09;101954.00;;;21.30
20289;BMP180;10303;51.960;8.372;2022-11-11T14:06:54;101950.00;;;21.40
20289;BMP180;10303;51.960;8.372;2022-11-11T14:09:58;101955.00;;;21.30
20289;BMP180;10303;51.960;8.372;2022-11-11T14:12:47;101960.00;;;21.30
20289;BMP180;10303;51.960;8.372;2022-11-11T14:15:39;101962.00;;;21.30
20289;BMP180;10303;51.960;8.372;2022-11-11T14:18:36;101956.00;;;21.20
20289;BMP180;10303;51.960;8.372;2022-11-11T14:21:49;101967.00;;;21.20
20289;BMP180;10303;51.960;8.372;2022-11-11T14:24:40;101960.00;;;21.20
20289;BMP180;10303;51.960;8.372;2022-11-11T14:27:29;101965.00;;;21.10
20289;BMP180;10303;51.960;8.372;2022-11-11T14:30:50;101968.00;;;21.10
20289;BMP180;10303;51.960;8.372;2022-11-11T14:34:36;101967.00;;;21.00
20289;BMP180;10303;51.960;8.372;2022-11-11T14:40:16;101969.00;;;21.00
20289;BMP180;10303;51.960;8.372;2022-11-11T14:43:36;101961.00;;;20.90
20289;BMP180;10303;51.960;8.372;2022-11-11T14:46:21;101958.00;;;21.00
20289;BMP180;10303;51.960;8.372;2022-11-11T14:49:07;101951.00;;;20.90
20289;BMP180;10303;51.960;8.372;2022-11-11T14:52:00;101959.00;;;20.90
20289;BMP180;10303;51.960;8.372;2022-11-11T14:55:26;101969.00;;;20.80
20289;BMP180;10303;51.960;8.372;2022-11-11T14:58:17;101964.00;;;20.80
20289;BMP180;10303;51.960;8.372;2022-11-11T15:01:15;101957.00;;;20.80
20289;BMP180;10303;51.960;8.372;2022-11-11T15:04:03;101950.00;;;20.80
20289;BMP180;10303;51.960;8.372;2022-11-11T15:06:59;101954.00;;;20.70
20289;BMP180;10303;51.960;8.372;2022-11-11T15:16:33;101960.00;;;20.40
20289;BMP180;10303;51.960;8.372;2022-11-11T15:23:16;101965.00;;;20.10
20289;BMP180;10303;51.960;8.372;2022-11-11T15:35:57;101952.00;;;19.60
20289;BMP180;10303;51.960;8.372;2022-11-11T15:38:44;101958.00;;;19.50
20289;BMP180;10303;51.960;8.372;2022-11-11T15:41:37;101956.00;;;19.30
20289;BMP180;10303;51.960;8.372;2022-11-11T15:44:30;101952.00;;;19.30
20289;BMP180;10303;51.960;8.372;2022-11-11T15:47:19;101954.00;;;19.10
20289;BMP180;10303;51.960;8.372;2022-11-11T15:53:12;101957.00;;;18.80
20289;BMP180;10303;51.960;8.372;2022-11-11T15:55:57;101954.00;;;18.80
20289;BMP180;10303;51.960;8.372;2022-11-11T15:58:44;101963.00;;;18.70
20289;BMP180;10303;51.960;8.372;2022-11-11T16:01:28;101960.00;;;18.50
20289;BMP180;10303;51.960;8.372;2022-11-11T16:04:22;101946.00;;;18.40
20289;BMP180;10303;51.960;8.372;2022-11-11T16:07:22;101959.00;;;18.20
20289;BMP180;10303;51.960;8.372;2022-11-11T16:10:30;101957.00;;;18.10
20289;BMP180;10303;51.960;8.372;2022-11-11T16:13:40;101947.00;;;18.00
20289;BMP180;10303;51.960;8.372;2022-11-11T16:16:30;101963.00;;;17.90
20289;BMP180;10303;51.960;8.372;2022-11-11T16:22:24;101955.00;;;17.60
20289;BMP180;10303;51.960;8.372;2022-11-11T16:25:18;101957.00;;;17.50
20289;BMP180;10303;51.960;8.372;2022-11-11T16:28:05;101966.00;;;17.40
20289;BMP180;10303;51.960;8.372;2022-11-11T16:30:50;101963.00;;;17.30
20289;BMP180;10303;51.960;8.372;2022-11-11T16:33:35;101950.00;;;17.10
20289;BMP180;10303;51.960;8.372;2022-11-11T16:36:19;101965.00;;;17.00
20289;BMP180;10303;51.960;8.372;2022-11-11T16:39:25;101958.00;;;16.90
20289;BMP180;10303;51.960;8.372;2022-11-11T16:42:23;101969.00;;;16.80
20289;BMP180;10303;51.960;8.372;2022-11-11T16:45:20;101962.00;;;16.70
20289;BMP180;10303;51.960;8.372;2022-11-11T16:51:37;101956.00;;;16.40
20289;BMP180;10303;51.960;8.372;2022-11-11T16:54:30;101962.00;;;16.30
20289;BMP180;10303;51.960;8.372;2022-11-11T16:57:31;101963.00;;;16.30
20289;BMP180;10303;51.960;8.372;2022-11-11T17:00:20;101959.00;;;16.20
20289;BMP180;10303;51.960;8.372;2022-11-11T17:03:22;101936.00;;;16.10
20289;BMP180;10303;51.960;8.372;2022-11-11T17:06:08;101954.00;;;15.90
20289;BMP180;10303;51.960;8.372;2022-11-11T17:08:54;101959.00;;;15.80
20289;BMP180;10303;51.960;8.372;2022-11-11T17:14:26;101944.00;;;15.60
20289;BMP180;10303;51.960;8.372;2022-11-11T17:17:11;101960.00;;;15.50
20289;BMP180;10303;51.960;8.372;2022-11-11T17:20:00;101968.00;;;15.40
20289;BMP180;10303;51.960;8.372;2022-11-11T17:22:56;101968.00;;;15.30
20289;BMP180;10303;51.960;8.372;2022-11-11T17:25:42;101962.00;;;15.20
20289;BMP180;10303;51.960;8.372;2022-11-11T17:28:34;101959.00;;;15.10
20289;BMP180;10303;51.960;8.372;2022-11-11T17:31:19;101956.00;;;15.00
20289;BMP180;10303;51.960;8.372;2022-11-11T17:34:06;101954.00;;;14.90
20289;BMP180;10303;51.960;8.372;2022-11-11T17:36:52;101963.00;;;14.80
20289;BMP180;10303;51.960;8.372;2022-11-11T17:39:37;101958.00;;;14.70
20289;BMP180;10303;51.960;8.372;2022-11-11T17:42:28;101960.00;;;14.60
20289;BMP180;10303;51.960;8.372;2022-11-11T17:45:13;101949.00;;;14.50
20289;BMP180;10303;51.960;8.372;2022-11-11T17:47:58;101974.00;;;14.40
20289;BMP180;10303;51.960;8.372;2022-11-11T17:50:42;101955.00;;;14.30
20289;BMP180;10303;51.960;8.372;2022-11-11T17:53:32;101967.00;;;14.20
20289;BMP180;10303;51.960;8.372;2022-11-11T17:56:19;101967.00;;;14.10
20289;BMP180;10303;51.960;8.372;2022-11-11T17:59:05;101964.00;;;14.00